Pagina principale
METAR-TAF:

METAR-TAF

Aeroporti :

Dire Daua, Etiopia

latitudine: 09-36N, longitudine: 041-52E, altezza: 1146 m

METAR: mancante

Ora: 22:29 (19:29 UTC)

Previsione

Il bollettino è stato emesso 9 ore e 59 minuti fa, alle 09:30 UTC
Previsione valida dal 24 alle 12 UTC al 25 alle 18 UTC
Vento 6 kt da nord/nord-ovest
Visibilità 10 km o più
Nubi sparse ad un'altezza di 2500 ft
Nubi sparse ad un'altezza di 8000 ft
Temporaneamente
dal 24 alle 11 UTC al 24 alle 14 UTC
Vento 8 kt da nord-ovest
Visibilità: 9000 m
Nubi sparse ad un'altezza di 2500 ft
Nuvoloso ad un'altezza di 8000 ft
(debole) foschia

TAF: HADR 240930Z 2412/2518 34006KT 9999 SCT025 SCT080 TEMPO 2411/2414 32008KT 9000 -BR SCT025 BKN080

Osservazioni e previsioni meteorologiche di più di 4000 aeroporti (messaggi METAR e TAF).

Le stazioni disponibili sono rappresentate dai dischi gialli e rossi sulla carta.

Puntare il mouse per vedere il nome della stazione.

Clicca sopra per visualizzare le osservazioni e previsioni meteorologiche.

Per cambiare la mappa : fare clic sui pulsanti verdi con una croce nera per ingrandire, il pulsante verde con un trattino per diminuire, o sulla freccia verde per le mappe adiacenti.


METAR-TAF: